Latest Coastal Weather Observations for Croker Island Airport

IDD60701

Issued at 2:21 pm CST Sunday 28 May 2017 (issued every 10 minutes, with the page automatically refreshed every 10 minutes)

About coastal observations | Map of coastal stations | Coastal observations for NT | Marine services | Other Formats
Station Details ID: 014308 Name: CROKER ISLAND AIRPORT Lat: -11.16 Lon: 132.48 Height: 9.2 m
Data from the previous 72 hours. | See also: Recent months at Croker Island Airport
Date/Time
CST
Temp
°C
Wind Pressure Rain since
9am
mm
Weather Cloud Vis
km
Sea
Height
m
Swell
Dir  Spd
kts
Gust
kts
hPa Trend Height
m
Period
s
Dir
28/02:00pm 30.1 ESE 14 19 1010.4 - 0.0 - - - - - - -
28/01:30pm 30.9 ESE 12 17 1010.7 - 0.0 - - - - - - -
28/01:00pm 30.2 E 14 21 1011.2 - 0.0 - - - - - - -
28/12:30pm 30.5 E 14 21 1011.6 - 0.0 - - - - - - -
28/12:00pm 30.2 ESE 13 21 1012.0 - 0.0 - - - - - - -
28/11:30am 30.0 E 12 18 1012.1 - 0.0 - - - - - - -
28/11:00am 29.4 ESE 14 19 1012.4 - 0.0 - - - - - - -
28/10:30am 29.2 ESE 11 16 1012.5 - 0.0 - - - - - - -
28/10:00am 29.0 ESE 12 17 1012.6 - 0.0 - - - - - - -
28/09:30am 28.7 ESE 12 20 1012.3 - 0.0 - - - - - - -
28/09:00am 28.1 E 11 18 1012.2 - 0.0 - - - - - - -
28/08:30am 27.6 ESE 10 15 1012.1 - 0.0 - - - - - - -
28/08:00am 26.7 ESE 7 11 1012.0 - 0.0 - - - - - - -
28/07:30am 25.4 ESE 6 8 1011.7 - 0.0 - - - - - - -
28/07:00am 24.8 ESE 5 8 1011.4 - 0.0 - - - - - - -
28/06:30am 25.1 ESE 7 11 1011.2 - 0.0 - - - - - - -
28/06:00am 25.2 ESE 8 14 1010.9 - 0.0 - - - - - - -
28/05:30am 25.3 ESE 8 12 1010.9 - 0.0 - - - - - - -
28/05:00am 25.5 ESE 8 12 1010.9 - 0.0 - - - - - - -
28/04:30am 25.8 ESE 10 16 1010.9 - 0.0 - - - - - - -
28/04:00am 25.8 ESE 8 12 1011.0 - 0.0 - - - - - - -
28/03:30am 26.1 ESE 9 16 1011.1 - 0.0 - - - - - - -
28/03:00am 26.4 ESE 9 15 1011.4 - 0.0 - - - - - - -
28/02:30am 26.6 ESE 10 16 1011.6 - 0.0 - - - - - - -
28/02:00am 26.7 ESE 10 16 1011.9 - 0.0 - - - - - - -
28/01:30am 27.0 ESE 11 19 1012.1 - 0.0 - - - - - - -
28/01:00am 26.8 E 9 13 1012.1 - 0.0 - - - - - - -
28/12:30am 26.8 E 7 12 1012.3 - 0.0 - - - - - - -
28/12:00am 27.1 E 8 13 1012.4 - 0.0 - - - - - - -
 
Date/Time
CST
Temp
°C
Wind Pressure Rain since
9am
mm
Weather Cloud Vis
km
Sea
Height
m
Swell
Dir  Spd
kts
Gust
kts
hPa Trend Height
m
Period
s
Dir
27/11:30pm 26.9 E 7 11 1012.6 - 0.0 - - - - - - -
27/11:00pm 26.9 E 7 13 1012.4 - 0.0 - - - - - - -
27/10:30pm 26.6 E 6 9 1012.2 - 0.0 - - - - - - -
27/10:00pm 26.6 E 6 9 1012.3 - 0.0 - - - - - - -
27/09:30pm 26.3 E 5 8 1012.3 - 0.0 - - - - - - -
27/09:00pm 25.9 E 4 7 1012.2 - 0.0 - - - - - - -
27/08:30pm 25.5 E 2 4 1011.8 - 0.0 - - - - - - -
27/08:00pm 25.9 E 3 5 1011.4 - 0.0 - - - - - - -
27/07:30pm 26.1 E 4 6 1011.2 - 0.0 - - - - - - -
27/07:00pm 26.5 E 6 9 1010.9 - 0.0 - - - - - - -
27/06:30pm 26.8 E 7 10 1010.7 - 0.0 - - - - - - -
27/06:00pm 27.7 E 7 11 1010.4 - 0.0 - - - - - - -
27/05:30pm 28.2 E 9 14 1010.3 - 0.0 - - - - - - -
27/05:00pm 28.0 ESE 8 14 1010.2 - 0.0 - - - - - - -
27/04:30pm 28.5 E 11 16 1010.2 - 0.0 - - - - - - -
27/04:00pm 28.6 ESE 9 15 1010.4 - 0.0 - - - - - - -
27/03:30pm 28.4 E 10 15 1010.3 - 0.0 - - - - - - -
27/03:00pm 28.6 E 11 16 1010.5 - 0.0 - - - - - - -
27/02:30pm 28.7 E 9 15 1010.7 - 0.0 - - - - - - -
27/02:00pm 28.6 ESE 10 19 1010.9 - 0.0 - - - - - - -
27/01:30pm 29.1 E 13 20 1011.2 - 0.0 - - - - - - -
27/01:00pm 28.8 ESE 13 19 1011.4 - 0.0 - - - - - - -
27/12:30pm 28.5 ESE 13 21 1011.5 - 0.0 - - - - - - -
27/12:00pm 29.0 ESE 11 20 1011.8 - 0.0 - - - - - - -
27/11:30am 28.4 E 15 22 1012.2 - 0.0 - - - - - - -
27/11:00am 28.0 ESE 13 20 1012.3 - 0.0 - - - - - - -
27/10:30am 27.9 ESE 12 19 1012.5 - 0.0 - - - - - - -
27/10:00am 28.2 ESE 11 16 1012.7 - 0.0 - - - - - - -
27/09:30am 27.4 ESE 9 14 1012.9 - 0.0 - - - - - - -
27/09:00am 27.4 ESE 9 13 1012.9 - 0.8 - - - - - - -
27/08:30am 26.9 ESE 8 12 1012.8 - 0.8 - - - - - - -
27/08:00am 26.1 ESE 7 9 1012.5 - 0.8 - - - - - - -
27/07:30am 25.1 ESE 6 12 1012.3 - 0.8 - - - - - - -
27/07:00am 24.9 ESE 8 12 1012.1 - 0.8 - - - - - - -
27/06:30am 25.0 ESE 8 12 1011.8 - 0.8 - - - - - - -
27/06:00am 25.2 ESE 10 15 1011.5 - 0.8 - - - - - - -
27/05:30am 25.3 ESE 9 15 1011.5 - 0.8 - - - - - - -
27/05:00am 25.6 ESE 8 14 1011.3 - 0.8 - - - - - - -
27/04:30am 26.0 ESE 11 16 1011.2 - 0.8 - - - - - - -
27/04:00am 25.9 ESE 9 14 1011.2 - 0.8 - - - - - - -
27/03:30am 25.9 ESE 9 15 1011.3 - 0.8 - - - - - - -
27/03:00am 25.7 ESE 8 13 1011.6 - 0.8 - - - - - - -
27/02:30am 25.4 ESE 8 11 1011.7 - 0.8 - - - - - - -
27/02:00am 25.3 ESE 7 10 1012.0 - 0.8 - - - - - - -
27/01:30am 25.1 ESE 6 9 1012.2 - 0.8 - - - - - - -
27/01:00am 24.5 E 4 5 1012.2 - 0.8 - - - - - - -
27/12:30am 25.6 E 9 19 1012.4 - 0.0 - - - - - - -
27/12:00am 27.1 E 7 12 1012.4 - 0.0 - - - - - - -
 
Date/Time
CST
Temp
°C
Wind Pressure Rain since
9am
mm
Weather Cloud Vis
km
Sea
Height
m
Swell
Dir  Spd
kts
Gust
kts
hPa Trend Height
m
Period
s
Dir
26/11:30pm 26.8 E 6 9 1012.5 - 0.0 - - - - - - -
26/11:00pm 27.1 E 10 16 1012.6 - 0.0 - - - - - - -
26/10:30pm 26.9 E 7 12 1012.5 - 0.0 - - - - - - -
26/10:00pm 26.5 E 6 10 1012.4 - 0.0 - - - - - - -
26/09:30pm 26.1 E 5 7 1012.4 - 0.0 - - - - - - -
26/09:00pm 25.9 ENE 4 6 1012.3 - 0.0 - - - - - - -
26/08:30pm 26.2 E 4 6 1012.3 - 0.0 - - - - - - -
26/08:00pm 26.5 E 5 9 1012.0 - 0.0 - - - - - - -
26/07:30pm 26.6 E 5 7 1011.8 - 0.0 - - - - - - -
26/07:00pm 26.5 E 4 7 1011.5 - 0.0 - - - - - - -
26/06:30pm 26.7 E 5 7 1011.1 - 0.0 - - - - - - -
26/06:00pm 27.4 E 7 11 1010.7 - 0.0 - - - - - - -
26/05:30pm 27.9 E 7 10 1010.5 - 0.0 - - - - - - -
26/05:00pm 28.7 E 11 16 1010.3 - 0.0 - - - - - - -
26/04:30pm 29.4 E 9 13 1010.0 - 0.0 - - - - - - -
26/04:00pm 29.9 E 10 17 1010.0 - 0.0 - - - - - - -
26/03:30pm 29.7 ESE 10 16 1010.1 - 0.0 - - - - - - -
26/03:00pm 29.9 E 11 17 1010.4 - 0.0 - - - - - - -
26/02:30pm 29.2 E 10 17 1010.7 - 0.0 - - - - - - -
26/02:00pm 29.9 ESE 12 17 1010.9 - 0.0 - - - - - - -
26/01:30pm 29.6 ESE 13 20 1011.3 - 0.0 - - - - - - -
26/01:00pm 29.5 ESE 13 18 1011.7 - 0.0 - - - - - - -
26/12:30pm 29.6 ESE 12 19 1012.0 - 0.0 - - - - - - -
26/12:00pm 29.4 ESE 11 18 1012.3 - 0.0 - - - - - - -
26/11:30am 28.2 ESE 13 21 1012.5 - 0.0 - - - - - - -
26/11:00am 29.1 E 13 19 1012.7 - 0.0 - - - - - - -
26/10:30am 28.4 ESE 13 21 1013.0 - 0.0 - - - - - - -
26/10:00am 29.2 ESE 11 17 1013.1 - 0.0 - - - - - - -
26/09:30am 27.6 ESE 10 17 1013.1 - 0.0 - - - - - - -
26/09:00am 26.7 ESE 8 15 1013.0 - 0.0 - - - - - - -
26/08:30am 26.9 ESE 9 13 1012.8 - 0.0 - - - - - - -
26/08:00am 26.3 ESE 8 13 1012.4 - 0.0 - - - - - - -
26/07:30am 25.9 ESE 7 10 1012.0 - 0.0 - - - - - - -
26/07:00am 25.4 ESE 6 9 1011.7 - 0.0 - - - - - - -
26/06:30am 24.9 ESE 6 9 1011.4 - 0.0 - - - - - - -
26/06:00am 24.8 ESE 4 6 1011.2 - 0.0 - - - - - - -
26/05:30am 25.4 ESE 5 7 1010.9 - 0.0 - - - - - - -
26/05:00am 25.4 ESE 5 7 1010.6 - 0.0 - - - - - - -
26/04:30am 25.6 ESE 4 5 1010.7 - 0.0 - - - - - - -
26/04:00am 26.2 ESE 7 10 1010.6 - 0.0 - - - - - - -
26/03:30am 26.4 ESE 7 11 1010.6 - 0.0 - - - - - - -
26/03:00am 27.1 ESE 11 17 1010.7 - 0.0 - - - - - - -
26/02:30am 27.3 ESE 11 18 1010.7 - 0.0 - - - - - - -
26/02:00am 27.4 ESE 10 18 1010.9 - 0.0 - - - - - - -
26/01:30am 27.4 E 10 15 1011.1 - 0.0 - - - - - - -
26/01:00am 27.5 E 10 15 1011.3 - 0.0 - - - - - - -
26/12:30am 27.3 E 10 15 1011.4 - 0.0 - - - - - - -
26/12:00am 27.3 E 8 13 1011.5 - 0.0 - - - - - - -
 
Date/Time
CST
Temp
°C
Wind Pressure Rain since
9am
mm
Weather Cloud Vis
km
Sea
Height
m
Swell
Dir  Spd
kts
Gust
kts
hPa Trend Height
m
Period
s
Dir
25/11:30pm 27.3 E 9 13 1011.6 - 0.0 - - - - - - -
25/11:00pm 27.3 E 8 13 1011.6 - 0.0 - - - - - - -
25/10:30pm 27.2 E 8 11 1011.7 - 0.0 - - - - - - -
25/10:00pm 27.0 E 7 11 1011.8 - 0.0 - - - - - - -
25/09:30pm 26.9 E 6 10 1011.7 - 0.0 - - - - - - -
25/09:00pm 26.9 E 6 9 1011.6 - 0.0 - - - - - - -
25/08:30pm 26.8 E 5 7 1011.3 - 0.0 - - - - - - -
25/08:00pm 26.8 E 5 6 1011.0 - 0.0 - - - - - - -
25/07:30pm 27.0 E 5 8 1010.6 - 0.0 - - - - - - -
25/07:00pm 27.1 E 5 8 1010.4 - 0.0 - - - - - - -
25/06:30pm 27.5 E 7 12 1010.2 - 0.0 - - - - - - -
25/06:00pm 28.1 E 8 12 1010.1 - 0.0 - - - - - - -
25/05:30pm 29.1 E 10 17 1009.9 - 0.0 - - - - - - -
25/05:00pm 29.3 E 12 18 1009.8 - 0.0 - - - - - - -
25/04:30pm 29.8 E 12 18 1009.9 - 0.0 - - - - - - -
25/04:00pm 30.0 E 11 16 1010.0 - 0.0 - - - - - - -
25/03:30pm 30.6 E 12 20 1009.8 - 0.0 - - - - - - -
25/03:00pm 30.7 E 12 18 1009.9 - 0.0 - - - - - - -
25/02:30pm 30.8 ESE 11 17 1010.2 - 0.0 - - - - - - -

Other Formats:

Comma delimited format used in spreadsheet applications
http://www.bom.gov.au/fwo/IDD60701/IDD60701.94108.axf

JavaScript Object Notation format (JSON) in row-major order
http://www.bom.gov.au/fwo/IDD60701/IDD60701.94108.json